sensor_id;sensor_type;location;lat;lon;timestamp;temperature;humidity
76787;DHT22;65739;51.482;5.702;2023-06-10T00:00:25;21.30;99.90
76787;DHT22;65739;51.482;5.702;2023-06-10T00:02:51;21.30;99.90
76787;DHT22;65739;51.482;5.702;2023-06-10T00:05:16;21.20;99.90
76787;DHT22;65739;51.482;5.702;2023-06-10T00:07:46;21.10;99.90
76787;DHT22;65739;51.482;5.702;2023-06-10T00:10:13;21.10;99.90
76787;DHT22;65739;51.482;5.702;2023-06-10T00:12:39;21.00;99.90
76787;DHT22;65739;51.482;5.702;2023-06-10T00:15:06;20.90;99.90
76787;DHT22;65739;51.482;5.702;2023-06-10T00:17:32;20.90;99.90
76787;DHT22;65739;51.482;5.702;2023-06-10T00:19:58;20.90;99.90
76787;DHT22;65739;51.482;5.702;2023-06-10T00:22:24;20.90;99.90
76787;DHT22;65739;51.482;5.702;2023-06-10T00:24:55;20.80;99.90
76787;DHT22;65739;51.482;5.702;2023-06-10T00:27:21;20.80;99.90
76787;DHT22;65739;51.482;5.702;2023-06-10T00:29:46;20.70;99.90
76787;DHT22;65739;51.482;5.702;2023-06-10T00:32:12;20.60;99.90
76787;DHT22;65739;51.482;5.702;2023-06-10T00:34:38;20.70;99.90
76787;DHT22;65739;51.482;5.702;2023-06-10T00:37:03;20.60;99.90
76787;DHT22;65739;51.482;5.702;2023-06-10T00:39:29;20.60;99.90
76787;DHT22;65739;51.482;5.702;2023-06-10T00:41:54;20.50;99.90
76787;DHT22;65739;51.482;5.702;2023-06-10T00:44:20;20.50;99.90
76787;DHT22;65739;51.482;5.702;2023-06-10T00:46:46;20.40;99.90
76787;DHT22;65739;51.482;5.702;2023-06-10T00:49:12;20.30;99.90
76787;DHT22;65739;51.482;5.702;2023-06-10T00:51:37;20.30;99.90
76787;DHT22;65739;51.482;5.702;2023-06-10T00:54:04;20.20;99.90
76787;DHT22;65739;51.482;5.702;2023-06-10T00:56:31;20.00;99.90
76787;DHT22;65739;51.482;5.702;2023-06-10T00:58:58;20.00;99.90
76787;DHT22;65739;51.482;5.702;2023-06-10T01:01:24;19.90;99.90
76787;DHT22;65739;51.482;5.702;2023-06-10T01:03:50;19.80;99.90
76787;DHT22;65739;51.482;5.702;2023-06-10T01:09:23;19.70;99.90
76787;DHT22;65739;51.482;5.702;2023-06-10T01:12:05;19.60;99.90
76787;DHT22;65739;51.482;5.702;2023-06-10T01:14:35;19.50;99.90
76787;DHT22;65739;51.482;5.702;2023-06-10T01:17:01;19.40;99.90
76787;DHT22;65739;51.482;5.702;2023-06-10T01:19:28;19.40;99.90
76787;DHT22;65739;51.482;5.702;2023-06-10T01:21:56;19.30;99.90
76787;DHT22;65739;51.482;5.702;2023-06-10T01:24:26;19.30;99.90
76787;DHT22;65739;51.482;5.702;2023-06-10T01:26:53;19.20;99.90
76787;DHT22;65739;51.482;5.702;2023-06-10T01:29:36;19.20;99.90
76787;DHT22;65739;51.482;5.702;2023-06-10T01:32:15;19.20;99.90
76787;DHT22;65739;51.482;5.702;2023-06-10T01:34:42;19.20;99.90
76787;DHT22;65739;51.482;5.702;2023-06-10T01:37:12;19.10;99.90
76787;DHT22;65739;51.482;5.702;2023-06-10T01:39:39;19.00;99.90
76787;DHT22;65739;51.482;5.702;2023-06-10T01:42:05;19.10;99.90
76787;DHT22;65739;51.482;5.702;2023-06-10T01:44:32;19.00;99.90
76787;DHT22;65739;51.482;5.702;2023-06-10T01:46:57;19.00;99.90
76787;DHT22;65739;51.482;5.702;2023-06-10T01:49:23;18.90;99.90
76787;DHT22;65739;51.482;5.702;2023-06-10T01:51:49;18.90;99.90
76787;DHT22;65739;51.482;5.702;2023-06-10T01:54:15;18.80;99.90
76787;DHT22;65739;51.482;5.702;2023-06-10T01:56:41;18.70;99.90
76787;DHT22;65739;51.482;5.702;2023-06-10T01:59:07;18.70;99.90
76787;DHT22;65739;51.482;5.702;2023-06-10T02:01:33;18.60;99.90
76787;DHT22;65739;51.482;5.702;2023-06-10T02:03:59;18.80;99.90
76787;DHT22;65739;51.482;5.702;2023-06-10T02:06:24;18.60;99.90
76787;DHT22;65739;51.482;5.702;2023-06-10T02:08:50;18.60;99.90
76787;DHT22;65739;51.482;5.702;2023-06-10T02:11:15;18.60;99.90
76787;DHT22;65739;51.482;5.702;2023-06-10T02:13:41;18.60;99.90
76787;DHT22;65739;51.482;5.702;2023-06-10T02:16:07;18.50;99.90
76787;DHT22;65739;51.482;5.702;2023-06-10T02:18:32;18.50;99.90
76787;DHT22;65739;51.482;5.702;2023-06-10T02:20:59;18.40;99.90
76787;DHT22;65739;51.482;5.702;2023-06-10T02:23:24;18.40;99.90
76787;DHT22;65739;51.482;5.702;2023-06-10T02:25:50;18.40;99.90
76787;DHT22;65739;51.482;5.702;2023-06-10T02:28:16;18.30;99.90
76787;DHT22;65739;51.482;5.702;2023-06-10T02:30:42;18.30;99.90
76787;DHT22;65739;51.482;5.702;2023-06-10T02:33:08;18.20;99.90
76787;DHT22;65739;51.482;5.702;2023-06-10T02:35:38;18.20;99.90
76787;DHT22;65739;51.482;5.702;2023-06-10T02:38:04;18.20;99.90
76787;DHT22;65739;51.482;5.702;2023-06-10T02:40:30;18.30;99.90
76787;DHT22;65739;51.482;5.702;2023-06-10T02:42:55;18.10;99.90
76787;DHT22;65739;51.482;5.702;2023-06-10T02:45:21;17.90;99.90
76787;DHT22;65739;51.482;5.702;2023-06-10T02:47:47;18.00;99.90
76787;DHT22;65739;51.482;5.702;2023-06-10T02:50:12;18.00;99.90
76787;DHT22;65739;51.482;5.702;2023-06-10T02:52:38;18.00;99.90
76787;DHT22;65739;51.482;5.702;2023-06-10T02:55:04;17.90;99.90
76787;DHT22;65739;51.482;5.702;2023-06-10T02:57:29;17.90;99.90
76787;DHT22;65739;51.482;5.702;2023-06-10T02:59:55;17.80;99.90
76787;DHT22;65739;51.482;5.702;2023-06-10T03:02:20;17.80;99.90
76787;DHT22;65739;51.482;5.702;2023-06-10T03:04:50;17.70;99.90
76787;DHT22;65739;51.482;5.702;2023-06-10T03:07:15;17.60;99.90
76787;DHT22;65739;51.482;5.702;2023-06-10T03:09:41;17.70;99.90
76787;DHT22;65739;51.482;5.702;2023-06-10T03:12:07;17.60;99.90
76787;DHT22;65739;51.482;5.702;2023-06-10T03:14:33;17.60;99.90
76787;DHT22;65739;51.482;5.702;2023-06-10T03:16:59;17.60;99.90
76787;DHT22;65739;51.482;5.702;2023-06-10T03:19:25;17.60;99.90
76787;DHT22;65739;51.482;5.702;2023-06-10T03:22:08;17.50;99.90
76787;DHT22;65739;51.482;5.702;2023-06-10T03:24:34;17.40;99.90
76787;DHT22;65739;51.482;5.702;2023-06-10T03:27:01;17.50;99.90
76787;DHT22;65739;51.482;5.702;2023-06-10T03:29:27;17.40;99.90
76787;DHT22;65739;51.482;5.702;2023-06-10T03:31:52;17.30;99.90
76787;DHT22;65739;51.482;5.702;2023-06-10T03:34:18;17.40;99.90
76787;DHT22;65739;51.482;5.702;2023-06-10T03:36:44;17.40;99.90
76787;DHT22;65739;51.482;5.702;2023-06-10T03:39:10;17.40;99.90
76787;DHT22;65739;51.482;5.702;2023-06-10T03:41:36;17.30;99.90
76787;DHT22;65739;51.482;5.702;2023-06-10T03:44:02;17.30;99.90
76787;DHT22;65739;51.482;5.702;2023-06-10T03:46:29;17.30;99.90
76787;DHT22;65739;51.482;5.702;2023-06-10T03:48:54;17.30;99.90
76787;DHT22;65739;51.482;5.702;2023-06-10T03:51:21;17.30;99.90
76787;DHT22;65739;51.482;5.702;2023-06-10T03:53:46;17.30;99.90
76787;DHT22;65739;51.482;5.702;2023-06-10T03:56:12;17.30;99.90
76787;DHT22;65739;51.482;5.702;2023-06-10T03:58:38;17.30;99.90
76787;DHT22;65739;51.482;5.702;2023-06-10T04:01:03;17.40;99.90
76787;DHT22;65739;51.482;5.702;2023-06-10T04:03:29;17.40;99.90
76787;DHT22;65739;51.482;5.702;2023-06-10T04:05:55;17.40;99.90
76787;DHT22;65739;51.482;5.702;2023-06-10T04:08:20;17.40;99.90
76787;DHT22;65739;51.482;5.702;2023-06-10T04:10:47;17.40;99.90
76787;DHT22;65739;51.482;5.702;2023-06-10T04:13:13;17.40;99.90
76787;DHT22;65739;51.482;5.702;2023-06-10T04:15:39;17.50;99.90
76787;DHT22;65739;51.482;5.702;2023-06-10T04:18:06;17.50;99.90
76787;DHT22;65739;51.482;5.702;2023-06-10T04:20:32;17.50;99.90
76787;DHT22;65739;51.482;5.702;2023-06-10T04:22:57;17.60;99.90
76787;DHT22;65739;51.482;5.702;2023-06-10T04:25:25;17.60;99.90
76787;DHT22;65739;51.482;5.702;2023-06-10T04:27:51;17.70;99.90
76787;DHT22;65739;51.482;5.702;2023-06-10T04:30:17;17.70;99.90
76787;DHT22;65739;51.482;5.702;2023-06-10T04:32:43;17.80;99.90
76787;DHT22;65739;51.482;5.702;2023-06-10T04:35:11;18.00;99.90
76787;DHT22;65739;51.482;5.702;2023-06-10T04:37:37;18.20;99.90
76787;DHT22;65739;51.482;5.702;2023-06-10T04:40:03;18.50;99.90
76787;DHT22;65739;51.482;5.702;2023-06-10T04:42:28;18.80;99.90
76787;DHT22;65739;51.482;5.702;2023-06-10T04:44:54;19.10;99.90
76787;DHT22;65739;51.482;5.702;2023-06-10T04:47:19;19.30;99.90
76787;DHT22;65739;51.482;5.702;2023-06-10T04:49:45;19.30;99.90
76787;DHT22;65739;51.482;5.702;2023-06-10T04:52:11;19.30;99.90
76787;DHT22;65739;51.482;5.702;2023-06-10T04:54:36;19.30;99.90
76787;DHT22;65739;51.482;5.702;2023-06-10T04:57:07;19.20;99.90
76787;DHT22;65739;51.482;5.702;2023-06-10T05:03:28;18.90;99.90
76787;DHT22;65739;51.482;5.702;2023-06-10T05:05:54;18.90;99.90
76787;DHT22;65739;51.482;5.702;2023-06-10T05:08:20;18.90;99.90
76787;DHT22;65739;51.482;5.702;2023-06-10T05:10:52;18.90;99.90
76787;DHT22;65739;51.482;5.702;2023-06-10T05:13:18;18.90;99.90
76787;DHT22;65739;51.482;5.702;2023-06-10T05:15:44;19.00;99.90
76787;DHT22;65739;51.482;5.702;2023-06-10T05:18:11;19.00;99.90
76787;DHT22;65739;51.482;5.702;2023-06-10T05:20:41;19.00;99.90
76787;DHT22;65739;51.482;5.702;2023-06-10T05:23:07;19.00;99.90
76787;DHT22;65739;51.482;5.702;2023-06-10T05:25:33;19.20;99.90
76787;DHT22;65739;51.482;5.702;2023-06-10T05:27:59;19.20;99.90
76787;DHT22;65739;51.482;5.702;2023-06-10T05:30:25;19.30;99.90
76787;DHT22;65739;51.482;5.702;2023-06-10T05:32:51;19.40;99.90
76787;DHT22;65739;51.482;5.702;2023-06-10T05:35:18;19.50;99.90
76787;DHT22;65739;51.482;5.702;2023-06-10T05:37:44;19.50;99.90
76787;DHT22;65739;51.482;5.702;2023-06-10T05:40:09;19.70;99.90
76787;DHT22;65739;51.482;5.702;2023-06-10T05:42:35;19.70;99.90
76787;DHT22;65739;51.482;5.702;2023-06-10T05:45:01;19.80;99.90
76787;DHT22;65739;51.482;5.702;2023-06-10T05:47:27;19.80;99.90
76787;DHT22;65739;51.482;5.702;2023-06-10T05:49:53;19.90;99.90
76787;DHT22;65739;51.482;5.702;2023-06-10T05:52:19;20.00;99.90
76787;DHT22;65739;51.482;5.702;2023-06-10T05:54:45;20.10;99.90
76787;DHT22;65739;51.482;5.702;2023-06-10T05:57:10;20.10;99.90
76787;DHT22;65739;51.482;5.702;2023-06-10T05:59:36;20.20;99.90
76787;DHT22;65739;51.482;5.702;2023-06-10T06:02:02;20.30;99.90
76787;DHT22;65739;51.482;5.702;2023-06-10T06:04:27;20.40;99.90
76787;DHT22;65739;51.482;5.702;2023-06-10T06:06:53;20.50;99.90
76787;DHT22;65739;51.482;5.702;2023-06-10T06:09:18;20.60;99.90
76787;DHT22;65739;51.482;5.702;2023-06-10T06:11:44;20.70;99.90
76787;DHT22;65739;51.482;5.702;2023-06-10T06:14:09;20.80;99.90
76787;DHT22;65739;51.482;5.702;2023-06-10T06:16:35;20.80;99.90
76787;DHT22;65739;51.482;5.702;2023-06-10T06:19:01;21.00;99.90
76787;DHT22;65739;51.482;5.702;2023-06-10T06:21:26;21.00;99.90
76787;DHT22;65739;51.482;5.702;2023-06-10T06:23:52;21.20;99.90
76787;DHT22;65739;51.482;5.702;2023-06-10T06:26:17;21.30;99.90
76787;DHT22;65739;51.482;5.702;2023-06-10T06:28:43;21.40;99.90
76787;DHT22;65739;51.482;5.702;2023-06-10T06:31:09;21.40;99.90
76787;DHT22;65739;51.482;5.702;2023-06-10T06:33:34;21.50;99.90
76787;DHT22;65739;51.482;5.702;2023-06-10T06:36:03;21.50;99.90
76787;DHT22;65739;51.482;5.702;2023-06-10T06:38:32;21.50;99.90
76787;DHT22;65739;51.482;5.702;2023-06-10T06:41:05;21.50;99.90
76787;DHT22;65739;51.482;5.702;2023-06-10T06:43:32;21.50;99.90
76787;DHT22;65739;51.482;5.702;2023-06-10T06:45:57;21.60;99.90
76787;DHT22;65739;51.482;5.702;2023-06-10T06:48:26;21.70;99.90
76787;DHT22;65739;51.482;5.702;2023-06-10T06:50:57;21.80;99.90
76787;DHT22;65739;51.482;5.702;2023-06-10T06:53:26;21.90;99.90
76787;DHT22;65739;51.482;5.702;2023-06-10T06:56:15;21.90;99.90
76787;DHT22;65739;51.482;5.702;2023-06-10T06:59:07;22.00;99.90
76787;DHT22;65739;51.482;5.702;2023-06-10T07:02:00;22.10;99.90
76787;DHT22;65739;51.482;5.702;2023-06-10T07:04:28;22.20;99.90
76787;DHT22;65739;51.482;5.702;2023-06-10T07:06:57;22.20;99.90
76787;DHT22;65739;51.482;5.702;2023-06-10T07:09:25;22.30;99.90
76787;DHT22;65739;51.482;5.702;2023-06-10T07:11:51;22.40;99.90
76787;DHT22;65739;51.482;5.702;2023-06-10T07:14:26;22.60;99.90
76787;DHT22;65739;51.482;5.702;2023-06-10T07:16:51;22.60;99.90
76787;DHT22;65739;51.482;5.702;2023-06-10T07:19:17;22.70;99.90
76787;DHT22;65739;51.482;5.702;2023-06-10T07:21:43;22.60;99.90
76787;DHT22;65739;51.482;5.702;2023-06-10T07:24:08;22.80;99.90
76787;DHT22;65739;51.482;5.702;2023-06-10T07:26:34;22.90;99.90
76787;DHT22;65739;51.482;5.702;2023-06-10T07:28:59;23.10;99.90
76787;DHT22;65739;51.482;5.702;2023-06-10T07:31:25;23.20;99.90
76787;DHT22;65739;51.482;5.702;2023-06-10T07:33:50;23.30;99.90
76787;DHT22;65739;51.482;5.702;2023-06-10T07:36:16;23.40;99.90
76787;DHT22;65739;51.482;5.702;2023-06-10T07:38:42;23.40;99.90
76787;DHT22;65739;51.482;5.702;2023-06-10T07:41:08;23.50;99.90
76787;DHT22;65739;51.482;5.702;2023-06-10T07:43:34;23.60;99.90
76787;DHT22;65739;51.482;5.702;2023-06-10T07:46:00;23.70;99.90
76787;DHT22;65739;51.482;5.702;2023-06-10T07:48:25;23.80;99.90
76787;DHT22;65739;51.482;5.702;2023-06-10T07:50:52;24.00;99.90
76787;DHT22;65739;51.482;5.702;2023-06-10T07:53:19;24.10;99.90
76787;DHT22;65739;51.482;5.702;2023-06-10T07:55:45;24.20;99.90
76787;DHT22;65739;51.482;5.702;2023-06-10T07:58:11;24.30;99.90
76787;DHT22;65739;51.482;5.702;2023-06-10T08:00:36;24.40;99.90
76787;DHT22;65739;51.482;5.702;2023-06-10T08:03:02;24.80;99.90
76787;DHT22;65739;51.482;5.702;2023-06-10T08:05:28;25.10;99.90
76787;DHT22;65739;51.482;5.702;2023-06-10T08:07:54;25.10;99.90
76787;DHT22;65739;51.482;5.702;2023-06-10T08:10:21;25.10;99.90
76787;DHT22;65739;51.482;5.702;2023-06-10T08:12:47;25.30;99.90
76787;DHT22;65739;51.482;5.702;2023-06-10T08:15:12;25.30;99.90
76787;DHT22;65739;51.482;5.702;2023-06-10T08:17:38;25.60;99.90
76787;DHT22;65739;51.482;5.702;2023-06-10T08:20:05;25.60;99.90
76787;DHT22;65739;51.482;5.702;2023-06-10T08:22:31;25.70;99.90
76787;DHT22;65739;51.482;5.702;2023-06-10T08:24:57;26.00;99.90
76787;DHT22;65739;51.482;5.702;2023-06-10T08:27:22;26.20;99.90
76787;DHT22;65739;51.482;5.702;2023-06-10T08:29:48;26.30;99.90
76787;DHT22;65739;51.482;5.702;2023-06-10T08:32:13;26.40;99.90
76787;DHT22;65739;51.482;5.702;2023-06-10T08:34:39;26.40;99.90
76787;DHT22;65739;51.482;5.702;2023-06-10T08:37:06;26.80;99.90
76787;DHT22;65739;51.482;5.702;2023-06-10T08:39:31;27.20;99.90
76787;DHT22;65739;51.482;5.702;2023-06-10T08:44:46;27.60;99.90
76787;DHT22;65739;51.482;5.702;2023-06-10T08:47:14;28.00;99.90
76787;DHT22;65739;51.482;5.702;2023-06-10T08:49:46;27.70;99.90
76787;DHT22;65739;51.482;5.702;2023-06-10T08:52:17;27.80;99.90
76787;DHT22;65739;51.482;5.702;2023-06-10T08:57:15;28.00;99.90
76787;DHT22;65739;51.482;5.702;2023-06-10T08:59:43;28.30;99.90
76787;DHT22;65739;51.482;5.702;2023-06-10T09:02:08;28.40;99.90
76787;DHT22;65739;51.482;5.702;2023-06-10T09:04:36;28.40;99.90
76787;DHT22;65739;51.482;5.702;2023-06-10T09:07:02;28.40;99.90
76787;DHT22;65739;51.482;5.702;2023-06-10T09:09:29;28.60;99.90
76787;DHT22;65739;51.482;5.702;2023-06-10T09:11:56;28.50;99.90
76787;DHT22;65739;51.482;5.702;2023-06-10T09:14:22;28.60;99.90
76787;DHT22;65739;51.482;5.702;2023-06-10T09:16:48;28.90;99.90
76787;DHT22;65739;51.482;5.702;2023-06-10T09:19:16;29.00;99.90
76787;DHT22;65739;51.482;5.702;2023-06-10T09:21:42;29.00;99.90
76787;DHT22;65739;51.482;5.702;2023-06-10T09:24:08;29.10;99.90
76787;DHT22;65739;51.482;5.702;2023-06-10T09:26:34;29.40;99.90
76787;DHT22;65739;51.482;5.702;2023-06-10T09:29:04;29.50;99.90
76787;DHT22;65739;51.482;5.702;2023-06-10T09:31:31;29.50;99.90
76787;DHT22;65739;51.482;5.702;2023-06-10T09:34:09;29.30;99.90
76787;DHT22;65739;51.482;5.702;2023-06-10T09:36:39;29.50;99.90
76787;DHT22;65739;51.482;5.702;2023-06-10T09:39:13;29.50;99.90
76787;DHT22;65739;51.482;5.702;2023-06-10T09:41:41;29.30;99.90
76787;DHT22;65739;51.482;5.702;2023-06-10T09:44:15;29.40;99.90
76787;DHT22;65739;51.482;5.702;2023-06-10T09:46:41;29.40;99.90
76787;DHT22;65739;51.482;5.702;2023-06-10T09:49:07;29.70;99.90
76787;DHT22;65739;51.482;5.702;2023-06-10T09:51:33;30.10;99.90
76787;DHT22;65739;51.482;5.702;2023-06-10T09:53:59;30.30;99.90
76787;DHT22;65739;51.482;5.702;2023-06-10T09:56:36;30.30;99.90
76787;DHT22;65739;51.482;5.702;2023-06-10T09:59:03;30.30;99.90
76787;DHT22;65739;51.482;5.702;2023-06-10T10:01:31;30.70;99.90
76787;DHT22;65739;51.482;5.702;2023-06-10T10:03:58;30.80;99.90
76787;DHT22;65739;51.482;5.702;2023-06-10T10:06:25;31.00;99.90
76787;DHT22;65739;51.482;5.702;2023-06-10T10:08:51;31.10;99.90
76787;DHT22;65739;51.482;5.702;2023-06-10T10:11:33;30.80;99.90
76787;DHT22;65739;51.482;5.702;2023-06-10T10:14:00;30.90;99.90
76787;DHT22;65739;51.482;5.702;2023-06-10T10:16:33;30.80;99.90
76787;DHT22;65739;51.482;5.702;2023-06-10T10:19:06;31.00;99.60
76787;DHT22;65739;51.482;5.702;2023-06-10T10:21:46;31.10;99.80
76787;DHT22;65739;51.482;5.702;2023-06-10T10:24:18;31.00;99.90
76787;DHT22;65739;51.482;5.702;2023-06-10T10:26:43;31.40;99.60
76787;DHT22;65739;51.482;5.702;2023-06-10T10:29:16;31.40;99.80
76787;DHT22;65739;51.482;5.702;2023-06-10T10:31:44;31.70;99.90
76787;DHT22;65739;51.482;5.702;2023-06-10T10:34:21;31.70;99.10
76787;DHT22;65739;51.482;5.702;2023-06-10T10:36:49;31.80;99.20
76787;DHT22;65739;51.482;5.702;2023-06-10T10:39:15;31.50;99.50
76787;DHT22;65739;51.482;5.702;2023-06-10T10:41:42;31.40;99.50
76787;DHT22;65739;51.482;5.702;2023-06-10T10:44:08;31.50;99.50
76787;DHT22;65739;51.482;5.702;2023-06-10T10:46:49;31.50;99.60
76787;DHT22;65739;51.482;5.702;2023-06-10T10:49:15;31.80;98.40
76787;DHT22;65739;51.482;5.702;2023-06-10T10:52:01;32.00;99.10
76787;DHT22;65739;51.482;5.702;2023-06-10T10:54:31;32.00;98.40
76787;DHT22;65739;51.482;5.702;2023-06-10T11:02:18;32.10;98.10
76787;DHT22;65739;51.482;5.702;2023-06-10T11:04:48;31.90;98.10
76787;DHT22;65739;51.482;5.702;2023-06-10T11:07:14;32.00;98.70
76787;DHT22;65739;51.482;5.702;2023-06-10T11:15:13;32.60;98.10
76787;DHT22;65739;51.482;5.702;2023-06-10T11:18:14;32.70;98.10
76787;DHT22;65739;51.482;5.702;2023-06-10T11:31:32;32.60;95.50
76787;DHT22;65739;51.482;5.702;2023-06-10T11:34:03;32.90;96.00
76787;DHT22;65739;51.482;5.702;2023-06-10T11:36:30;33.10;96.00
76787;DHT22;65739;51.482;5.702;2023-06-10T11:38:58;33.10;95.80
76787;DHT22;65739;51.482;5.702;2023-06-10T11:41:29;33.30;96.10
76787;DHT22;65739;51.482;5.702;2023-06-10T11:43:55;33.20;95.20
76787;DHT22;65739;51.482;5.702;2023-06-10T11:46:22;33.10;95.40
76787;DHT22;65739;51.482;5.702;2023-06-10T11:48:51;33.40;95.50
76787;DHT22;65739;51.482;5.702;2023-06-10T11:51:17;33.60;95.00
76787;DHT22;65739;51.482;5.702;2023-06-10T11:53:49;33.70;95.10
76787;DHT22;65739;51.482;5.702;2023-06-10T11:56:23;33.80;94.90
76787;DHT22;65739;51.482;5.702;2023-06-10T11:58:53;33.80;94.80
76787;DHT22;65739;51.482;5.702;2023-06-10T12:01:21;33.30;94.80
76787;DHT22;65739;51.482;5.702;2023-06-10T12:03:47;33.00;94.70
76787;DHT22;65739;51.482;5.702;2023-06-10T12:06:13;33.10;94.30
76787;DHT22;65739;51.482;5.702;2023-06-10T12:08:42;33.40;94.80
76787;DHT22;65739;51.482;5.702;2023-06-10T12:11:08;33.40;95.20
76787;DHT22;65739;51.482;5.702;2023-06-10T12:13:34;33.70;94.90
76787;DHT22;65739;51.482;5.702;2023-06-10T12:16:07;33.90;95.40
76787;DHT22;65739;51.482;5.702;2023-06-10T12:18:33;34.00;93.50
76787;DHT22;65739;51.482;5.702;2023-06-10T12:20:58;33.20;94.20
76787;DHT22;65739;51.482;5.702;2023-06-10T12:23:24;33.60;93.90
76787;DHT22;65739;51.482;5.702;2023-06-10T12:25:54;33.80;94.10
76787;DHT22;65739;51.482;5.702;2023-06-10T12:28:24;34.20;94.80
76787;DHT22;65739;51.482;5.702;2023-06-10T12:30:50;34.10;93.30
76787;DHT22;65739;51.482;5.702;2023-06-10T12:33:19;33.80;94.20
76787;DHT22;65739;51.482;5.702;2023-06-10T12:35:50;33.40;93.40
76787;DHT22;65739;51.482;5.702;2023-06-10T12:38:25;33.70;93.50
76787;DHT22;65739;51.482;5.702;2023-06-10T12:40:57;34.00;93.10
76787;DHT22;65739;51.482;5.702;2023-06-10T12:43:26;34.10;93.10
76787;DHT22;65739;51.482;5.702;2023-06-10T12:45:52;34.50;93.70
76787;DHT22;65739;51.482;5.702;2023-06-10T12:48:24;34.50;93.10
76787;DHT22;65739;51.482;5.702;2023-06-10T12:50:55;34.10;92.40
76787;DHT22;65739;51.482;5.702;2023-06-10T12:53:22;34.30;92.00
76787;DHT22;65739;51.482;5.702;2023-06-10T12:55:52;34.20;91.70
76787;DHT22;65739;51.482;5.702;2023-06-10T12:58:19;34.20;93.10
76787;DHT22;65739;51.482;5.702;2023-06-10T13:00:45;33.90;92.20
76787;DHT22;65739;51.482;5.702;2023-06-10T13:03:11;34.20;92.60
76787;DHT22;65739;51.482;5.702;2023-06-10T13:05:37;33.80;91.70
76787;DHT22;65739;51.482;5.702;2023-06-10T13:08:05;33.60;92.30
76787;DHT22;65739;51.482;5.702;2023-06-10T13:10:31;33.20;93.00
76787;DHT22;65739;51.482;5.702;2023-06-10T13:12:56;33.20;92.90
76787;DHT22;65739;51.482;5.702;2023-06-10T13:15:22;33.20;92.70
76787;DHT22;65739;51.482;5.702;2023-06-10T13:17:47;33.90;92.60
76787;DHT22;65739;51.482;5.702;2023-06-10T13:20:15;34.00;91.40
76787;DHT22;65739;51.482;5.702;2023-06-10T13:22:42;34.60;92.40
76787;DHT22;65739;51.482;5.702;2023-06-10T13:25:08;34.40;90.90
76787;DHT22;65739;51.482;5.702;2023-06-10T13:27:37;34.20;91.10
76787;DHT22;65739;51.482;5.702;2023-06-10T13:30:04;33.90;91.20
76787;DHT22;65739;51.482;5.702;2023-06-10T13:32:30;33.90;91.00
76787;DHT22;65739;51.482;5.702;2023-06-10T13:34:56;34.20;90.90
76787;DHT22;65739;51.482;5.702;2023-06-10T13:37:22;34.60;92.30
76787;DHT22;65739;51.482;5.702;2023-06-10T13:39:48;35.40;90.30
76787;DHT22;65739;51.482;5.702;2023-06-10T13:42:25;35.40;90.50
76787;DHT22;65739;51.482;5.702;2023-06-10T13:44:54;35.30;90.30
76787;DHT22;65739;51.482;5.702;2023-06-10T13:47:20;35.10;89.60
76787;DHT22;65739;51.482;5.702;2023-06-10T13:49:46;34.90;90.00
76787;DHT22;65739;51.482;5.702;2023-06-10T13:52:11;34.70;90.20
76787;DHT22;65739;51.482;5.702;2023-06-10T13:54:37;35.00;88.90
76787;DHT22;65739;51.482;5.702;2023-06-10T13:57:03;35.20;88.40
76787;DHT22;65739;51.482;5.702;2023-06-10T13:59:29;35.40;89.10
76787;DHT22;65739;51.482;5.702;2023-06-10T14:01:55;35.00;89.40
76787;DHT22;65739;51.482;5.702;2023-06-10T14:04:21;35.20;88.40
76787;DHT22;65739;51.482;5.702;2023-06-10T14:06:47;34.30;86.70
76787;DHT22;65739;51.482;5.702;2023-06-10T14:09:14;33.80;87.30
76787;DHT22;65739;51.482;5.702;2023-06-10T14:11:39;33.90;88.80
76787;DHT22;65739;51.482;5.702;2023-06-10T14:14:05;33.80;89.10
76787;DHT22;65739;51.482;5.702;2023-06-10T14:16:30;34.20;89.10
76787;DHT22;65739;51.482;5.702;2023-06-10T14:18:56;34.00;89.00
76787;DHT22;65739;51.482;5.702;2023-06-10T14:21:22;34.50;88.80
76787;DHT22;65739;51.482;5.702;2023-06-10T14:23:47;34.80;90.30
76787;DHT22;65739;51.482;5.702;2023-06-10T14:26:14;34.80;88.80
76787;DHT22;65739;51.482;5.702;2023-06-10T14:28:40;35.00;88.40
76787;DHT22;65739;51.482;5.702;2023-06-10T14:31:05;35.20;87.80
76787;DHT22;65739;51.482;5.702;2023-06-10T14:33:31;35.20;87.00
76787;DHT22;65739;51.482;5.702;2023-06-10T14:35:57;35.00;86.20
76787;DHT22;65739;51.482;5.702;2023-06-10T14:38:23;34.20;88.90
76787;DHT22;65739;51.482;5.702;2023-06-10T14:40:48;33.10;86.70
76787;DHT22;65739;51.482;5.702;2023-06-10T14:43:14;32.50;88.50
76787;DHT22;65739;51.482;5.702;2023-06-10T14:45:40;32.50;89.40
76787;DHT22;65739;51.482;5.702;2023-06-10T14:48:06;33.00;89.00
76787;DHT22;65739;51.482;5.702;2023-06-10T14:50:34;33.80;89.10
76787;DHT22;65739;51.482;5.702;2023-06-10T14:53:00;34.50;88.10
76787;DHT22;65739;51.482;5.702;2023-06-10T14:55:25;34.90;89.40
76787;DHT22;65739;51.482;5.702;2023-06-10T14:57:51;35.20;87.80
76787;DHT22;65739;51.482;5.702;2023-06-10T15:00:17;35.80;88.10
76787;DHT22;65739;51.482;5.702;2023-06-10T15:02:46;35.90;87.40
76787;DHT22;65739;51.482;5.702;2023-06-10T15:05:15;36.00;86.90
76787;DHT22;65739;51.482;5.702;2023-06-10T15:07:45;35.40;86.80
76787;DHT22;65739;51.482;5.702;2023-06-10T15:10:10;36.00;87.20
76787;DHT22;65739;51.482;5.702;2023-06-10T15:12:36;34.80;85.60
76787;DHT22;65739;51.482;5.702;2023-06-10T15:15:02;33.70;86.10
76787;DHT22;65739;51.482;5.702;2023-06-10T15:17:28;33.20;87.90
76787;DHT22;65739;51.482;5.702;2023-06-10T15:19:54;34.00;87.40
76787;DHT22;65739;51.482;5.702;2023-06-10T15:22:19;34.40;87.90
76787;DHT22;65739;51.482;5.702;2023-06-10T15:24:45;35.10;88.60
76787;DHT22;65739;51.482;5.702;2023-06-10T15:27:11;34.80;87.90
76787;DHT22;65739;51.482;5.702;2023-06-10T15:29:36;34.30;86.80
76787;DHT22;65739;51.482;5.702;2023-06-10T15:32:02;33.60;88.40
76787;DHT22;65739;51.482;5.702;2023-06-10T15:34:28;32.80;88.10
76787;DHT22;65739;51.482;5.702;2023-06-10T15:36:53;32.80;87.60
76787;DHT22;65739;51.482;5.702;2023-06-10T15:39:19;32.30;89.00
76787;DHT22;65739;51.482;5.702;2023-06-10T15:41:45;31.90;89.10
76787;DHT22;65739;51.482;5.702;2023-06-10T15:44:10;31.10;89.00
76787;DHT22;65739;51.482;5.702;2023-06-10T15:46:36;31.50;90.00
76787;DHT22;65739;51.482;5.702;2023-06-10T15:49:02;31.70;90.10
76787;DHT22;65739;51.482;5.702;2023-06-10T15:51:28;31.80;89.60
76787;DHT22;65739;51.482;5.702;2023-06-10T15:53:54;32.70;90.20
76787;DHT22;65739;51.482;5.702;2023-06-10T15:56:19;33.80;90.10
76787;DHT22;65739;51.482;5.702;2023-06-10T15:58:46;34.60;89.40
76787;DHT22;65739;51.482;5.702;2023-06-10T16:01:12;34.50;90.00
76787;DHT22;65739;51.482;5.702;2023-06-10T16:03:37;34.90;87.60